sensor_id;sensor_type;location;lat;lon;timestamp;P1;durP1;ratioP1;P2;durP2;ratioP2
6426;SDS011;3246;42.664;23.308;2024-03-08T00:00:15;2.43;;;1.87;;
6426;SDS011;3246;42.664;23.308;2024-03-08T00:02:43;2.00;;;1.90;;
6426;SDS011;3246;42.664;23.308;2024-03-08T00:05:11;2.67;;;2.30;;
6426;SDS011;3246;42.664;23.308;2024-03-08T00:07:39;3.10;;;2.90;;
6426;SDS011;3246;42.664;23.308;2024-03-08T00:10:08;3.00;;;2.80;;
6426;SDS011;3246;42.664;23.308;2024-03-08T00:12:36;4.83;;;3.47;;
6426;SDS011;3246;42.664;23.308;2024-03-08T00:15:03;4.30;;;3.47;;
6426;SDS011;3246;42.664;23.308;2024-03-08T00:17:31;3.23;;;3.03;;
6426;SDS011;3246;42.664;23.308;2024-03-08T00:19:58;3.63;;;2.23;;
6426;SDS011;3246;42.664;23.308;2024-03-08T00:22:25;2.47;;;1.93;;
6426;SDS011;3246;42.664;23.308;2024-03-08T00:24:51;1.60;;;1.50;;
6426;SDS011;3246;42.664;23.308;2024-03-08T00:27:20;1.50;;;1.40;;
6426;SDS011;3246;42.664;23.308;2024-03-08T00:29:47;1.80;;;1.70;;
6426;SDS011;3246;42.664;23.308;2024-03-08T00:32:13;1.77;;;1.17;;
6426;SDS011;3246;42.664;23.308;2024-03-08T00:34:42;1.33;;;1.00;;
6426;SDS011;3246;42.664;23.308;2024-03-08T00:37:09;0.70;;;0.70;;
6426;SDS011;3246;42.664;23.308;2024-03-08T00:39:35;0.63;;;0.63;;
6426;SDS011;3246;42.664;23.308;2024-03-08T00:42:02;1.27;;;0.90;;
6426;SDS011;3246;42.664;23.308;2024-03-08T00:44:30;1.00;;;0.90;;
6426;SDS011;3246;42.664;23.308;2024-03-08T00:46:57;1.07;;;0.97;;
6426;SDS011;3246;42.664;23.308;2024-03-08T00:49:24;1.77;;;1.63;;
6426;SDS011;3246;42.664;23.308;2024-03-08T00:51:51;1.50;;;1.40;;
6426;SDS011;3246;42.664;23.308;2024-03-08T00:54:18;1.10;;;1.00;;
6426;SDS011;3246;42.664;23.308;2024-03-08T00:56:45;1.70;;;1.37;;
6426;SDS011;3246;42.664;23.308;2024-03-08T00:59:12;1.33;;;1.20;;
6426;SDS011;3246;42.664;23.308;2024-03-08T01:01:41;2.20;;;1.63;;
6426;SDS011;3246;42.664;23.308;2024-03-08T01:04:09;1.67;;;1.40;;
6426;SDS011;3246;42.664;23.308;2024-03-08T01:06:36;1.80;;;1.70;;
6426;SDS011;3246;42.664;23.308;2024-03-08T01:09:03;1.47;;;1.37;;
6426;SDS011;3246;42.664;23.308;2024-03-08T01:11:32;1.47;;;1.33;;
6426;SDS011;3246;42.664;23.308;2024-03-08T01:13:59;0.97;;;0.97;;
6426;SDS011;3246;42.664;23.308;2024-03-08T01:16:26;1.27;;;1.17;;
6426;SDS011;3246;42.664;23.308;2024-03-08T01:18:54;1.13;;;1.03;;
6426;SDS011;3246;42.664;23.308;2024-03-08T01:21:21;1.40;;;1.30;;
6426;SDS011;3246;42.664;23.308;2024-03-08T01:23:48;1.20;;;1.17;;
6426;SDS011;3246;42.664;23.308;2024-03-08T01:26:14;1.67;;;1.07;;
6426;SDS011;3246;42.664;23.308;2024-03-08T01:28:41;1.53;;;1.43;;
6426;SDS011;3246;42.664;23.308;2024-03-08T01:31:08;1.37;;;1.27;;
6426;SDS011;3246;42.664;23.308;2024-03-08T01:33:35;1.43;;;1.30;;
6426;SDS011;3246;42.664;23.308;2024-03-08T01:36:03;1.30;;;1.20;;
6426;SDS011;3246;42.664;23.308;2024-03-08T01:38:31;1.47;;;1.37;;
6426;SDS011;3246;42.664;23.308;2024-03-08T01:40:57;0.63;;;0.63;;
6426;SDS011;3246;42.664;23.308;2024-03-08T01:43:25;1.17;;;1.17;;
6426;SDS011;3246;42.664;23.308;2024-03-08T01:45:53;1.40;;;1.30;;
6426;SDS011;3246;42.664;23.308;2024-03-08T01:48:21;1.47;;;1.27;;
6426;SDS011;3246;42.664;23.308;2024-03-08T01:50:49;1.47;;;1.37;;
6426;SDS011;3246;42.664;23.308;2024-03-08T01:53:18;0.80;;;0.80;;
6426;SDS011;3246;42.664;23.308;2024-03-08T01:55:46;1.53;;;1.43;;
6426;SDS011;3246;42.664;23.308;2024-03-08T01:58:14;1.17;;;1.17;;
6426;SDS011;3246;42.664;23.308;2024-03-08T02:00:43;2.07;;;1.00;;
6426;SDS011;3246;42.664;23.308;2024-03-08T02:03:14;2.33;;;1.57;;
6426;SDS011;3246;42.664;23.308;2024-03-08T02:05:41;2.17;;;1.50;;
6426;SDS011;3246;42.664;23.308;2024-03-08T02:08:08;1.77;;;1.67;;
6426;SDS011;3246;42.664;23.308;2024-03-08T02:10:41;1.47;;;1.40;;
6426;SDS011;3246;42.664;23.308;2024-03-08T02:13:09;2.03;;;1.93;;
6426;SDS011;3246;42.664;23.308;2024-03-08T02:15:52;1.83;;;1.73;;
6426;SDS011;3246;42.664;23.308;2024-03-08T02:18:20;1.50;;;1.40;;
6426;SDS011;3246;42.664;23.308;2024-03-08T02:20:49;1.70;;;1.60;;
6426;SDS011;3246;42.664;23.308;2024-03-08T02:23:17;1.90;;;1.77;;
6426;SDS011;3246;42.664;23.308;2024-03-08T02:25:44;1.83;;;1.70;;
6426;SDS011;3246;42.664;23.308;2024-03-08T02:28:11;1.70;;;1.60;;
6426;SDS011;3246;42.664;23.308;2024-03-08T02:30:39;2.27;;;1.63;;
6426;SDS011;3246;42.664;23.308;2024-03-08T02:33:06;2.43;;;1.83;;
6426;SDS011;3246;42.664;23.308;2024-03-08T02:35:34;1.40;;;1.33;;
6426;SDS011;3246;42.664;23.308;2024-03-08T02:38:03;2.87;;;1.50;;
6426;SDS011;3246;42.664;23.308;2024-03-08T02:40:30;1.23;;;1.13;;
6426;SDS011;3246;42.664;23.308;2024-03-08T02:42:57;1.53;;;1.47;;
6426;SDS011;3246;42.664;23.308;2024-03-08T02:45:24;0.70;;;0.70;;
6426;SDS011;3246;42.664;23.308;2024-03-08T02:47:51;0.50;;;0.50;;
6426;SDS011;3246;42.664;23.308;2024-03-08T02:50:18;0.70;;;0.70;;
6426;SDS011;3246;42.664;23.308;2024-03-08T02:52:45;0.50;;;0.50;;
6426;SDS011;3246;42.664;23.308;2024-03-08T02:55:13;0.43;;;0.43;;
6426;SDS011;3246;42.664;23.308;2024-03-08T02:57:41;0.47;;;0.47;;
6426;SDS011;3246;42.664;23.308;2024-03-08T03:00:09;2.13;;;0.80;;
6426;SDS011;3246;42.664;23.308;2024-03-08T03:02:36;0.50;;;0.50;;
6426;SDS011;3246;42.664;23.308;2024-03-08T03:05:03;0.63;;;0.63;;
6426;SDS011;3246;42.664;23.308;2024-03-08T03:07:31;0.70;;;0.70;;
6426;SDS011;3246;42.664;23.308;2024-03-08T03:09:58;0.83;;;0.83;;
6426;SDS011;3246;42.664;23.308;2024-03-08T03:12:28;0.70;;;0.70;;
6426;SDS011;3246;42.664;23.308;2024-03-08T03:14:55;2.13;;;1.10;;
6426;SDS011;3246;42.664;23.308;2024-03-08T03:17:22;1.40;;;1.17;;
6426;SDS011;3246;42.664;23.308;2024-03-08T03:19:49;1.23;;;1.13;;
6426;SDS011;3246;42.664;23.308;2024-03-08T03:22:18;2.30;;;1.00;;
6426;SDS011;3246;42.664;23.308;2024-03-08T03:24:45;1.13;;;0.97;;
6426;SDS011;3246;42.664;23.308;2024-03-08T03:27:12;0.70;;;0.70;;
6426;SDS011;3246;42.664;23.308;2024-03-08T03:29:41;1.00;;;1.00;;
6426;SDS011;3246;42.664;23.308;2024-03-08T03:32:10;0.70;;;0.70;;
6426;SDS011;3246;42.664;23.308;2024-03-08T03:34:37;0.80;;;0.80;;
6426;SDS011;3246;42.664;23.308;2024-03-08T03:37:04;0.70;;;0.70;;
6426;SDS011;3246;42.664;23.308;2024-03-08T03:39:32;0.57;;;0.57;;
6426;SDS011;3246;42.664;23.308;2024-03-08T03:41:59;1.53;;;1.23;;
6426;SDS011;3246;42.664;23.308;2024-03-08T03:44:27;0.57;;;0.57;;
6426;SDS011;3246;42.664;23.308;2024-03-08T03:46:55;0.80;;;0.80;;
6426;SDS011;3246;42.664;23.308;2024-03-08T03:49:22;0.60;;;0.60;;
6426;SDS011;3246;42.664;23.308;2024-03-08T03:51:48;1.83;;;0.70;;
6426;SDS011;3246;42.664;23.308;2024-03-08T03:54:15;0.93;;;0.80;;
6426;SDS011;3246;42.664;23.308;2024-03-08T03:56:42;0.40;;;0.30;;
6426;SDS011;3246;42.664;23.308;2024-03-08T03:59:11;0.73;;;0.73;;
6426;SDS011;3246;42.664;23.308;2024-03-08T04:01:41;0.80;;;0.80;;
6426;SDS011;3246;42.664;23.308;2024-03-08T04:04:10;0.73;;;0.73;;
6426;SDS011;3246;42.664;23.308;2024-03-08T04:06:37;0.90;;;0.90;;
6426;SDS011;3246;42.664;23.308;2024-03-08T04:09:04;1.07;;;0.97;;
6426;SDS011;3246;42.664;23.308;2024-03-08T04:11:31;1.03;;;0.90;;
6426;SDS011;3246;42.664;23.308;2024-03-08T04:13:58;0.73;;;0.73;;
6426;SDS011;3246;42.664;23.308;2024-03-08T04:16:24;1.53;;;1.43;;
6426;SDS011;3246;42.664;23.308;2024-03-08T04:18:51;1.00;;;0.90;;
6426;SDS011;3246;42.664;23.308;2024-03-08T04:21:19;1.37;;;1.27;;
6426;SDS011;3246;42.664;23.308;2024-03-08T04:23:46;1.00;;;0.90;;
6426;SDS011;3246;42.664;23.308;2024-03-08T04:26:13;1.30;;;1.20;;
6426;SDS011;3246;42.664;23.308;2024-03-08T04:28:40;1.50;;;1.40;;
6426;SDS011;3246;42.664;23.308;2024-03-08T04:31:07;1.47;;;1.37;;
6426;SDS011;3246;42.664;23.308;2024-03-08T04:33:34;1.80;;;1.70;;
6426;SDS011;3246;42.664;23.308;2024-03-08T04:36:01;1.83;;;1.40;;
6426;SDS011;3246;42.664;23.308;2024-03-08T04:38:30;1.33;;;1.23;;
6426;SDS011;3246;42.664;23.308;2024-03-08T04:40:57;1.50;;;1.40;;
6426;SDS011;3246;42.664;23.308;2024-03-08T04:43:24;1.30;;;1.20;;
6426;SDS011;3246;42.664;23.308;2024-03-08T04:45:55;2.00;;;1.80;;
6426;SDS011;3246;42.664;23.308;2024-03-08T04:48:22;1.90;;;1.80;;
6426;SDS011;3246;42.664;23.308;2024-03-08T04:50:49;2.87;;;1.83;;
6426;SDS011;3246;42.664;23.308;2024-03-08T04:53:16;3.63;;;2.37;;
6426;SDS011;3246;42.664;23.308;2024-03-08T04:55:44;3.60;;;2.00;;
6426;SDS011;3246;42.664;23.308;2024-03-08T04:58:11;3.90;;;2.03;;
6426;SDS011;3246;42.664;23.308;2024-03-08T05:00:38;2.67;;;2.47;;
6426;SDS011;3246;42.664;23.308;2024-03-08T05:03:04;3.53;;;2.20;;
6426;SDS011;3246;42.664;23.308;2024-03-08T05:05:31;3.07;;;2.77;;
6426;SDS011;3246;42.664;23.308;2024-03-08T05:07:58;2.87;;;2.50;;
6426;SDS011;3246;42.664;23.308;2024-03-08T05:10:26;2.63;;;2.43;;
6426;SDS011;3246;42.664;23.308;2024-03-08T05:12:54;3.30;;;3.00;;
6426;SDS011;3246;42.664;23.308;2024-03-08T05:15:21;3.47;;;3.17;;
6426;SDS011;3246;42.664;23.308;2024-03-08T05:17:48;3.13;;;2.93;;
6426;SDS011;3246;42.664;23.308;2024-03-08T05:20:15;3.47;;;3.17;;
6426;SDS011;3246;42.664;23.308;2024-03-08T05:22:42;10.17;;;6.70;;
6426;SDS011;3246;42.664;23.308;2024-03-08T05:25:09;4.70;;;3.07;;
6426;SDS011;3246;42.664;23.308;2024-03-08T05:27:37;3.03;;;2.83;;
6426;SDS011;3246;42.664;23.308;2024-03-08T05:30:06;3.60;;;3.30;;
6426;SDS011;3246;42.664;23.308;2024-03-08T05:32:38;3.63;;;3.33;;
6426;SDS011;3246;42.664;23.308;2024-03-08T05:35:05;3.67;;;3.37;;
6426;SDS011;3246;42.664;23.308;2024-03-08T05:37:33;3.93;;;3.50;;
6426;SDS011;3246;42.664;23.308;2024-03-08T05:39:59;5.13;;;4.03;;
6426;SDS011;3246;42.664;23.308;2024-03-08T05:42:26;4.27;;;3.87;;
6426;SDS011;3246;42.664;23.308;2024-03-08T05:44:53;8.90;;;5.07;;
6426;SDS011;3246;42.664;23.308;2024-03-08T05:47:23;4.10;;;3.70;;
6426;SDS011;3246;42.664;23.308;2024-03-08T05:49:50;3.77;;;3.47;;
6426;SDS011;3246;42.664;23.308;2024-03-08T05:52:18;4.93;;;4.43;;
6426;SDS011;3246;42.664;23.308;2024-03-08T05:54:45;5.37;;;4.90;;
6426;SDS011;3246;42.664;23.308;2024-03-08T05:57:12;4.90;;;4.40;;
6426;SDS011;3246;42.664;23.308;2024-03-08T05:59:39;4.27;;;3.93;;
6426;SDS011;3246;42.664;23.308;2024-03-08T06:02:06;4.30;;;3.57;;
6426;SDS011;3246;42.664;23.308;2024-03-08T06:04:34;4.60;;;3.90;;
6426;SDS011;3246;42.664;23.308;2024-03-08T06:07:01;4.37;;;4.03;;
6426;SDS011;3246;42.664;23.308;2024-03-08T06:09:28;4.10;;;3.77;;
6426;SDS011;3246;42.664;23.308;2024-03-08T06:11:55;4.00;;;3.70;;
6426;SDS011;3246;42.664;23.308;2024-03-08T06:14:22;4.60;;;3.80;;
6426;SDS011;3246;42.664;23.308;2024-03-08T06:16:49;4.57;;;3.77;;
6426;SDS011;3246;42.664;23.308;2024-03-08T06:19:16;4.73;;;4.33;;
6426;SDS011;3246;42.664;23.308;2024-03-08T06:21:44;5.20;;;3.80;;
6426;SDS011;3246;42.664;23.308;2024-03-08T06:24:11;5.00;;;4.13;;
6426;SDS011;3246;42.664;23.308;2024-03-08T06:26:38;5.80;;;4.40;;
6426;SDS011;3246;42.664;23.308;2024-03-08T06:29:04;4.70;;;3.93;;
6426;SDS011;3246;42.664;23.308;2024-03-08T06:31:32;5.07;;;4.20;;
6426;SDS011;3246;42.664;23.308;2024-03-08T06:33:59;4.30;;;3.90;;
6426;SDS011;3246;42.664;23.308;2024-03-08T06:36:26;4.33;;;3.93;;
6426;SDS011;3246;42.664;23.308;2024-03-08T06:38:54;3.73;;;3.40;;
6426;SDS011;3246;42.664;23.308;2024-03-08T06:41:22;3.53;;;3.23;;
6426;SDS011;3246;42.664;23.308;2024-03-08T06:43:49;3.97;;;3.67;;
6426;SDS011;3246;42.664;23.308;2024-03-08T06:46:17;3.93;;;3.53;;
6426;SDS011;3246;42.664;23.308;2024-03-08T06:48:45;3.90;;;3.50;;
6426;SDS011;3246;42.664;23.308;2024-03-08T06:51:12;4.23;;;3.80;;
6426;SDS011;3246;42.664;23.308;2024-03-08T06:53:39;5.63;;;4.17;;
6426;SDS011;3246;42.664;23.308;2024-03-08T06:56:07;4.63;;;4.07;;
6426;SDS011;3246;42.664;23.308;2024-03-08T06:58:34;4.77;;;4.27;;
6426;SDS011;3246;42.664;23.308;2024-03-08T07:01:01;4.70;;;4.30;;
6426;SDS011;3246;42.664;23.308;2024-03-08T07:03:29;5.87;;;3.70;;
6426;SDS011;3246;42.664;23.308;2024-03-08T07:05:57;4.13;;;3.83;;
6426;SDS011;3246;42.664;23.308;2024-03-08T07:08:24;4.40;;;3.73;;
6426;SDS011;3246;42.664;23.308;2024-03-08T07:10:52;7.00;;;4.87;;
6426;SDS011;3246;42.664;23.308;2024-03-08T07:13:20;4.60;;;3.80;;
6426;SDS011;3246;42.664;23.308;2024-03-08T07:15:47;3.87;;;3.57;;
6426;SDS011;3246;42.664;23.308;2024-03-08T07:18:13;6.00;;;4.70;;
6426;SDS011;3246;42.664;23.308;2024-03-08T07:20:40;7.20;;;4.80;;
6426;SDS011;3246;42.664;23.308;2024-03-08T07:23:08;4.97;;;4.57;;
6426;SDS011;3246;42.664;23.308;2024-03-08T07:25:35;4.77;;;3.97;;
6426;SDS011;3246;42.664;23.308;2024-03-08T07:28:04;7.47;;;4.27;;
6426;SDS011;3246;42.664;23.308;2024-03-08T07:30:33;3.93;;;3.63;;
6426;SDS011;3246;42.664;23.308;2024-03-08T07:33:19;5.77;;;4.83;;
6426;SDS011;3246;42.664;23.308;2024-03-08T07:35:48;5.13;;;4.63;;
6426;SDS011;3246;42.664;23.308;2024-03-08T07:38:15;6.03;;;5.47;;
6426;SDS011;3246;42.664;23.308;2024-03-08T07:40:42;9.33;;;5.10;;
6426;SDS011;3246;42.664;23.308;2024-03-08T07:43:10;7.47;;;5.73;;
6426;SDS011;3246;42.664;23.308;2024-03-08T07:45:38;8.97;;;5.03;;
6426;SDS011;3246;42.664;23.308;2024-03-08T07:48:06;10.07;;;7.97;;
6426;SDS011;3246;42.664;23.308;2024-03-08T07:50:35;6.20;;;4.37;;
6426;SDS011;3246;42.664;23.308;2024-03-08T07:53:02;6.33;;;4.97;;
6426;SDS011;3246;42.664;23.308;2024-03-08T07:55:31;5.30;;;4.40;;
6426;SDS011;3246;42.664;23.308;2024-03-08T07:57:58;4.93;;;4.40;;
6426;SDS011;3246;42.664;23.308;2024-03-08T08:00:25;6.50;;;5.10;;
6426;SDS011;3246;42.664;23.308;2024-03-08T08:02:54;9.53;;;5.37;;
6426;SDS011;3246;42.664;23.308;2024-03-08T08:05:21;5.23;;;4.73;;
6426;SDS011;3246;42.664;23.308;2024-03-08T08:07:48;8.67;;;5.63;;
6426;SDS011;3246;42.664;23.308;2024-03-08T08:10:15;10.83;;;7.53;;
6426;SDS011;3246;42.664;23.308;2024-03-08T08:12:43;9.60;;;7.80;;
6426;SDS011;3246;42.664;23.308;2024-03-08T08:15:11;8.77;;;7.67;;
6426;SDS011;3246;42.664;23.308;2024-03-08T08:17:40;8.67;;;6.93;;
6426;SDS011;3246;42.664;23.308;2024-03-08T08:20:09;9.17;;;6.47;;
6426;SDS011;3246;42.664;23.308;2024-03-08T08:22:37;5.90;;;5.30;;
6426;SDS011;3246;42.664;23.308;2024-03-08T08:25:05;6.57;;;5.83;;
6426;SDS011;3246;42.664;23.308;2024-03-08T08:27:32;9.47;;;6.20;;
6426;SDS011;3246;42.664;23.308;2024-03-08T08:30:01;6.43;;;5.80;;
6426;SDS011;3246;42.664;23.308;2024-03-08T08:32:29;7.33;;;6.53;;
6426;SDS011;3246;42.664;23.308;2024-03-08T08:34:56;7.63;;;6.57;;
6426;SDS011;3246;42.664;23.308;2024-03-08T08:37:26;9.90;;;7.73;;
6426;SDS011;3246;42.664;23.308;2024-03-08T08:39:53;5.43;;;4.80;;
6426;SDS011;3246;42.664;23.308;2024-03-08T08:42:20;5.23;;;4.77;;
6426;SDS011;3246;42.664;23.308;2024-03-08T08:44:47;5.27;;;4.77;;
6426;SDS011;3246;42.664;23.308;2024-03-08T08:47:14;5.97;;;4.63;;
6426;SDS011;3246;42.664;23.308;2024-03-08T08:49:42;4.53;;;3.60;;
6426;SDS011;3246;42.664;23.308;2024-03-08T08:52:09;4.13;;;3.67;;
6426;SDS011;3246;42.664;23.308;2024-03-08T08:54:37;4.00;;;3.70;;
6426;SDS011;3246;42.664;23.308;2024-03-08T08:57:04;4.70;;;3.33;;
6426;SDS011;3246;42.664;23.308;2024-03-08T08:59:32;4.93;;;4.50;;
6426;SDS011;3246;42.664;23.308;2024-03-08T09:02:00;3.50;;;3.20;;
6426;SDS011;3246;42.664;23.308;2024-03-08T09:04:28;3.33;;;2.97;;
6426;SDS011;3246;42.664;23.308;2024-03-08T09:06:55;4.67;;;3.23;;
6426;SDS011;3246;42.664;23.308;2024-03-08T09:09:22;5.93;;;3.30;;
6426;SDS011;3246;42.664;23.308;2024-03-08T09:11:52;4.13;;;3.03;;
6426;SDS011;3246;42.664;23.308;2024-03-08T09:14:19;5.27;;;3.00;;
6426;SDS011;3246;42.664;23.308;2024-03-08T09:16:46;3.30;;;3.00;;
6426;SDS011;3246;42.664;23.308;2024-03-08T09:19:13;2.70;;;2.50;;
6426;SDS011;3246;42.664;23.308;2024-03-08T09:21:40;2.47;;;2.27;;
6426;SDS011;3246;42.664;23.308;2024-03-08T09:24:07;2.83;;;2.63;;
6426;SDS011;3246;42.664;23.308;2024-03-08T09:26:34;3.77;;;3.23;;
6426;SDS011;3246;42.664;23.308;2024-03-08T09:29:02;2.50;;;2.23;;
6426;SDS011;3246;42.664;23.308;2024-03-08T09:31:29;2.47;;;2.27;;
6426;SDS011;3246;42.664;23.308;2024-03-08T09:33:55;2.93;;;2.73;;
6426;SDS011;3246;42.664;23.308;2024-03-08T09:36:22;2.93;;;2.70;;
6426;SDS011;3246;42.664;23.308;2024-03-08T09:38:50;3.23;;;2.93;;
6426;SDS011;3246;42.664;23.308;2024-03-08T09:41:18;4.67;;;4.17;;
6426;SDS011;3246;42.664;23.308;2024-03-08T09:43:45;4.93;;;4.07;;
6426;SDS011;3246;42.664;23.308;2024-03-08T09:46:14;5.13;;;4.67;;
6426;SDS011;3246;42.664;23.308;2024-03-08T09:48:42;5.43;;;4.37;;
6426;SDS011;3246;42.664;23.308;2024-03-08T09:51:08;3.13;;;2.80;;
6426;SDS011;3246;42.664;23.308;2024-03-08T09:53:39;4.00;;;2.20;;
6426;SDS011;3246;42.664;23.308;2024-03-08T09:56:07;12.67;;;2.60;;
6426;SDS011;3246;42.664;23.308;2024-03-08T09:58:34;2.40;;;1.83;;
6426;SDS011;3246;42.664;23.308;2024-03-08T10:01:20;2.10;;;1.90;;
6426;SDS011;3246;42.664;23.308;2024-03-08T10:03:47;4.70;;;2.30;;
6426;SDS011;3246;42.664;23.308;2024-03-08T10:06:15;9.37;;;2.53;;
6426;SDS011;3246;42.664;23.308;2024-03-08T10:08:42;1.87;;;1.77;;
6426;SDS011;3246;42.664;23.308;2024-03-08T10:11:09;2.20;;;2.10;;
6426;SDS011;3246;42.664;23.308;2024-03-08T10:13:36;2.43;;;2.23;;
6426;SDS011;3246;42.664;23.308;2024-03-08T10:16:05;5.17;;;2.33;;
6426;SDS011;3246;42.664;23.308;2024-03-08T10:18:34;7.40;;;2.30;;
6426;SDS011;3246;42.664;23.308;2024-03-08T10:21:04;2.30;;;2.10;;
6426;SDS011;3246;42.664;23.308;2024-03-08T10:23:33;2.70;;;2.40;;
6426;SDS011;3246;42.664;23.308;2024-03-08T10:26:10;1.77;;;1.67;;
6426;SDS011;3246;42.664;23.308;2024-03-08T10:28:40;2.47;;;2.27;;
6426;SDS011;3246;42.664;23.308;2024-03-08T10:31:08;2.83;;;2.47;;
6426;SDS011;3246;42.664;23.308;2024-03-08T10:33:36;1.80;;;1.70;;
6426;SDS011;3246;42.664;23.308;2024-03-08T10:36:05;1.97;;;1.87;;
6426;SDS011;3246;42.664;23.308;2024-03-08T10:38:34;1.43;;;1.33;;
6426;SDS011;3246;42.664;23.308;2024-03-08T10:41:03;2.03;;;1.43;;
6426;SDS011;3246;42.664;23.308;2024-03-08T10:43:32;1.30;;;1.20;;
6426;SDS011;3246;42.664;23.308;2024-03-08T10:46:19;3.23;;;1.70;;
6426;SDS011;3246;42.664;23.308;2024-03-08T10:48:54;1.93;;;1.83;;
6426;SDS011;3246;42.664;23.308;2024-03-08T10:51:24;1.10;;;1.10;;
6426;SDS011;3246;42.664;23.308;2024-03-08T10:53:52;1.90;;;1.80;;
6426;SDS011;3246;42.664;23.308;2024-03-08T10:56:20;2.97;;;1.93;;
6426;SDS011;3246;42.664;23.308;2024-03-08T10:58:48;1.67;;;1.57;;
6426;SDS011;3246;42.664;23.308;2024-03-08T11:01:15;1.63;;;1.53;;
6426;SDS011;3246;42.664;23.308;2024-03-08T11:03:45;4.23;;;1.87;;
6426;SDS011;3246;42.664;23.308;2024-03-08T11:06:23;6.77;;;2.20;;
6426;SDS011;3246;42.664;23.308;2024-03-08T11:08:57;4.40;;;2.20;;
6426;SDS011;3246;42.664;23.308;2024-03-08T11:11:24;5.60;;;2.43;;
6426;SDS011;3246;42.664;23.308;2024-03-08T11:13:59;2.30;;;2.10;;
6426;SDS011;3246;42.664;23.308;2024-03-08T11:16:37;3.93;;;2.10;;
6426;SDS011;3246;42.664;23.308;2024-03-08T11:19:23;1.90;;;1.80;;
6426;SDS011;3246;42.664;23.308;2024-03-08T11:21:58;2.50;;;2.30;;
6426;SDS011;3246;42.664;23.308;2024-03-08T11:24:26;1.67;;;1.57;;
6426;SDS011;3246;42.664;23.308;2024-03-08T11:26:57;4.20;;;1.97;;
6426;SDS011;3246;42.664;23.308;2024-03-08T11:29:38;4.33;;;2.03;;
6426;SDS011;3246;42.664;23.308;2024-03-08T11:32:09;1.67;;;1.57;;
6426;SDS011;3246;42.664;23.308;2024-03-08T11:34:37;1.93;;;1.83;;
6426;SDS011;3246;42.664;23.308;2024-03-08T11:37:12;4.60;;;4.17;;
6426;SDS011;3246;42.664;23.308;2024-03-08T11:39:40;3.00;;;2.53;;
6426;SDS011;3246;42.664;23.308;2024-03-08T11:42:12;1.77;;;1.67;;
6426;SDS011;3246;42.664;23.308;2024-03-08T11:44:39;1.87;;;1.77;;
6426;SDS011;3246;42.664;23.308;2024-03-08T11:47:09;3.43;;;2.63;;
6426;SDS011;3246;42.664;23.308;2024-03-08T11:49:36;3.23;;;2.17;;
6426;SDS011;3246;42.664;23.308;2024-03-08T11:52:03;2.93;;;1.57;;
6426;SDS011;3246;42.664;23.308;2024-03-08T11:54:32;2.37;;;1.60;;
6426;SDS011;3246;42.664;23.308;2024-03-08T11:56:59;1.60;;;1.50;;
6426;SDS011;3246;42.664;23.308;2024-03-08T11:59:27;3.63;;;1.73;;
6426;SDS011;3246;42.664;23.308;2024-03-08T12:01:59;2.83;;;2.30;;
6426;SDS011;3246;42.664;23.308;2024-03-08T12:04:27;1.60;;;1.50;;
6426;SDS011;3246;42.664;23.308;2024-03-08T12:06:54;2.93;;;1.50;;
6426;SDS011;3246;42.664;23.308;2024-03-08T12:09:20;1.40;;;1.30;;
6426;SDS011;3246;42.664;23.308;2024-03-08T12:11:49;2.77;;;2.57;;
6426;SDS011;3246;42.664;23.308;2024-03-08T12:14:17;3.70;;;3.30;;
6426;SDS011;3246;42.664;23.308;2024-03-08T12:16:43;2.90;;;2.70;;
6426;SDS011;3246;42.664;23.308;2024-03-08T12:19:10;4.07;;;2.70;;
6426;SDS011;3246;42.664;23.308;2024-03-08T12:21:37;3.63;;;2.60;;
6426;SDS011;3246;42.664;23.308;2024-03-08T12:24:14;1.40;;;1.30;;
6426;SDS011;3246;42.664;23.308;2024-03-08T12:26:44;1.57;;;1.47;;
6426;SDS011;3246;42.664;23.308;2024-03-08T12:29:21;1.53;;;1.43;;
6426;SDS011;3246;42.664;23.308;2024-03-08T12:31:53;5.17;;;2.00;;
6426;SDS011;3246;42.664;23.308;2024-03-08T12:34:21;2.00;;;1.90;;
6426;SDS011;3246;42.664;23.308;2024-03-08T12:36:48;2.23;;;2.13;;
6426;SDS011;3246;42.664;23.308;2024-03-08T12:39:18;5.73;;;2.63;;
6426;SDS011;3246;42.664;23.308;2024-03-08T12:41:51;1.53;;;1.43;;
6426;SDS011;3246;42.664;23.308;2024-03-08T12:44:21;4.10;;;2.70;;
6426;SDS011;3246;42.664;23.308;2024-03-08T12:46:47;2.23;;;2.13;;
6426;SDS011;3246;42.664;23.308;2024-03-08T12:49:16;3.17;;;1.43;;
6426;SDS011;3246;42.664;23.308;2024-03-08T12:51:43;1.77;;;1.67;;
6426;SDS011;3246;42.664;23.308;2024-03-08T12:54:10;1.83;;;1.73;;
6426;SDS011;3246;42.664;23.308;2024-03-08T12:56:38;3.53;;;2.90;;
6426;SDS011;3246;42.664;23.308;2024-03-08T12:59:05;3.85;;;3.15;;
6426;SDS011;3246;42.664;23.308;2024-03-08T13:01:35;3.07;;;2.63;;
6426;SDS011;3246;42.664;23.308;2024-03-08T13:04:02;5.78;;;4.10;;
6426;SDS011;3246;42.664;23.308;2024-03-08T13:06:31;4.27;;;3.20;;
6426;SDS011;3246;42.664;23.308;2024-03-08T13:08:58;4.57;;;3.47;;
6426;SDS011;3246;42.664;23.308;2024-03-08T13:11:30;6.35;;;4.90;;
6426;SDS011;3246;42.664;23.308;2024-03-08T13:13:59;2.90;;;2.70;;
6426;SDS011;3246;42.664;23.308;2024-03-08T13:16:26;2.00;;;1.55;;
6426;SDS011;3246;42.664;23.308;2024-03-08T13:18:56;1.80;;;1.20;;
6426;SDS011;3246;42.664;23.308;2024-03-08T13:21:23;1.70;;;1.60;;
6426;SDS011;3246;42.664;23.308;2024-03-08T13:23:50;1.50;;;1.40;;
6426;SDS011;3246;42.664;23.308;2024-03-08T13:26:18;1.30;;;1.20;;
6426;SDS011;3246;42.664;23.308;2024-03-08T13:28:45;2.08;;;1.60;;
6426;SDS011;3246;42.664;23.308;2024-03-08T13:31:13;1.60;;;1.50;;
6426;SDS011;3246;42.664;23.308;2024-03-08T13:33:41;1.38;;;1.27;;
6426;SDS011;3246;42.664;23.308;2024-03-08T13:36:12;1.65;;;1.55;;
6426;SDS011;3246;42.664;23.308;2024-03-08T13:38:42;1.77;;;1.67;;
6426;SDS011;3246;42.664;23.308;2024-03-08T13:41:09;5.78;;;4.85;;
6426;SDS011;3246;42.664;23.308;2024-03-08T13:43:39;3.42;;;3.22;;
6426;SDS011;3246;42.664;23.308;2024-03-08T13:46:06;2.72;;;2.47;;
6426;SDS011;3246;42.664;23.308;2024-03-08T13:48:35;3.40;;;2.95;;
6426;SDS011;3246;42.664;23.308;2024-03-08T13:51:02;4.93;;;2.60;;
6426;SDS011;3246;42.664;23.308;2024-03-08T13:53:31;5.93;;;5.07;;
6426;SDS011;3246;42.664;23.308;2024-03-08T13:56:00;4.33;;;2.33;;
6426;SDS011;3246;42.664;23.308;2024-03-08T13:58:27;2.73;;;1.90;;
6426;SDS011;3246;42.664;23.308;2024-03-08T14:00:53;2.37;;;2.17;;
6426;SDS011;3246;42.664;23.308;2024-03-08T14:03:20;6.63;;;5.90;;
6426;SDS011;3246;42.664;23.308;2024-03-08T14:05:48;10.90;;;9.90;;
6426;SDS011;3246;42.664;23.308;2024-03-08T14:08:15;3.77;;;3.47;;
6426;SDS011;3246;42.664;23.308;2024-03-08T14:10:44;1.87;;;1.77;;
6426;SDS011;3246;42.664;23.308;2024-03-08T14:13:12;3.67;;;1.43;;
6426;SDS011;3246;42.664;23.308;2024-03-08T14:15:41;2.07;;;1.60;;
6426;SDS011;3246;42.664;23.308;2024-03-08T14:18:09;6.47;;;1.80;;
6426;SDS011;3246;42.664;23.308;2024-03-08T14:20:38;4.57;;;2.43;;
6426;SDS011;3246;42.664;23.308;2024-03-08T14:23:05;2.13;;;1.50;;
6426;SDS011;3246;42.664;23.308;2024-03-08T14:25:33;2.97;;;2.27;;
6426;SDS011;3246;42.664;23.308;2024-03-08T14:28:01;6.77;;;5.43;;
6426;SDS011;3246;42.664;23.308;2024-03-08T14:30:29;3.00;;;2.30;;
6426;SDS011;3246;42.664;23.308;2024-03-08T14:33:00;6.17;;;2.60;;
6426;SDS011;3246;42.664;23.308;2024-03-08T14:35:27;1.33;;;1.23;;
6426;SDS011;3246;42.664;23.308;2024-03-08T14:37:54;2.00;;;1.60;;
6426;SDS011;3246;42.664;23.308;2024-03-08T14:40:22;3.10;;;2.00;;
6426;SDS011;3246;42.664;23.308;2024-03-08T14:42:49;2.57;;;2.00;;
6426;SDS011;3246;42.664;23.308;2024-03-08T14:45:17;3.83;;;2.90;;
6426;SDS011;3246;42.664;23.308;2024-03-08T14:47:45;2.70;;;2.43;;
6426;SDS011;3246;42.664;23.308;2024-03-08T14:50:14;1.80;;;1.70;;
6426;SDS011;3246;42.664;23.308;2024-03-08T14:52:42;2.07;;;1.97;;
6426;SDS011;3246;42.664;23.308;2024-03-08T14:55:09;2.47;;;2.10;;
6426;SDS011;3246;42.664;23.308;2024-03-08T14:57:39;2.47;;;2.27;;
6426;SDS011;3246;42.664;23.308;2024-03-08T15:00:06;5.60;;;2.17;;
6426;SDS011;3246;42.664;23.308;2024-03-08T15:02:43;4.60;;;2.50;;
6426;SDS011;3246;42.664;23.308;2024-03-08T15:05:11;2.30;;;2.10;;